Time;durP1;ratioP1;P1;durP2;ratioP2;P2;SDS_P1;SDS_P2;PMS_P1;PMS_P2;Temp;Humidity;BMP_temperature;BMP_pressure;BME280_temperature;BME280_humidity;BME280_pressure;Samples;Min_cycle;Max_cycle;Signal;HPM_P1;HPM_P2
2021/11/02 00:01:44;;;;;;;14.13;5.93;;;7.70;88.70;;;;;;5036153;28;20406;-77
2021/11/02 00:04:12;;;;;;;18.27;7.00;;;7.80;89.80;;;;;;5036152;28;20466;-76
2021/11/02 00:06:37;;;;;;;17.83;7.32;;;7.70;88.80;;;;;;5038141;28;20434;-77
2021/11/02 00:09:07;;;;;;;16.20;6.57;;;7.70;89.20;;;;;;5041004;28;20386;-76
2021/11/02 00:11:34;;;;;;;14.23;7.15;;;7.60;90.60;;;;;;5048136;28;20414;-77
2021/11/02 00:14:01;;;;;;;18.40;6.67;;;7.60;91.40;;;;;;5047006;28;20402;-76
2021/11/02 00:16:28;;;;;;;24.10;7.82;;;7.60;92.30;;;;;;5052445;28;20413;-76
2021/11/02 00:19:00;;;;;;;13.10;6.13;;;7.50;92.70;;;;;;5044791;28;20827;-78
2021/11/02 00:21:29;;;;;;;16.55;6.55;;;7.60;92.90;;;;;;5040468;28;20394;-77
2021/11/02 00:24:08;;;;;;;17.60;6.63;;;7.50;93.90;;;;;;5043261;28;20417;-77
2021/11/02 00:26:33;;;;;;;12.95;5.93;;;7.50;95.40;;;;;;5043429;28;20419;-77
2021/11/02 00:28:59;;;;;;;9.95;6.50;;;7.60;95.50;;;;;;5036556;28;20457;-77
2021/11/02 00:31:24;;;;;;;13.82;6.82;;;7.60;94.60;;;;;;5050701;28;20403;-77
2021/11/02 00:33:50;;;;;;;18.85;6.38;;;7.70;93.50;;;;;;5046145;28;20453;-76
2021/11/02 00:36:16;;;;;;;17.10;6.78;;;7.70;93.90;;;;;;5046674;28;20445;-77
2021/11/02 00:38:41;;;;;;;14.30;5.57;;;7.70;94.20;;;;;;5047205;28;20849;-77
2021/11/02 00:41:07;;;;;;;15.80;6.53;;;7.80;91.80;;;;;;5046658;28;20394;-77
2021/11/02 00:43:35;;;;;;;15.70;6.43;;;7.80;90.30;;;;;;5046333;28;20442;-76
2021/11/02 00:46:00;;;;;;;13.30;6.65;;;7.80;89.30;;;;;;5035055;28;20490;-77
2021/11/02 00:48:27;;;;;;;14.48;6.20;;;7.80;89.20;;;;;;5035462;28;20434;-76
2021/11/02 00:50:53;;;;;;;18.75;7.22;;;7.70;89.70;;;;;;5034485;28;20399;-77
2021/11/02 00:53:19;;;;;;;14.70;6.93;;;7.60;91.40;;;;;;5031755;28;20387;-76
2021/11/02 00:55:45;;;;;;;13.23;6.55;;;7.60;92.80;;;;;;5031844;28;20958;-76
2021/11/02 00:58:11;;;;;;;20.13;6.68;;;7.50;94.00;;;;;;5028308;28;20392;-78
2021/11/02 01:00:37;;;;;;;18.20;6.10;;;7.50;95.00;;;;;;5031712;28;20422;-79
2021/11/02 01:03:04;;;;;;;19.15;6.55;;;7.60;92.60;;;;;;5033839;28;20402;-76
2021/11/02 01:05:30;;;;;;;12.90;6.20;;;7.40;93.50;;;;;;5033132;28;20391;-77
2021/11/02 01:07:56;;;;;;;14.05;6.18;;;7.30;95.60;;;;;;5031533;28;20474;-76
2021/11/02 01:10:22;;;;;;;17.07;6.80;;;7.30;96.50;;;;;;5030465;28;20482;-76
2021/11/02 01:12:50;;;;;;;16.92;6.22;;;7.30;96.30;;;;;;5031562;28;20387;-76
2021/11/02 01:15:19;;;;;;;15.02;6.95;;;7.30;97.50;;;;;;5033293;28;20453;-76
2021/11/02 01:17:45;;;;;;;18.30;6.10;;;7.20;97.10;;;;;;5036109;28;20438;-77
2021/11/02 01:20:13;;;;;;;14.30;6.40;;;7.20;99.90;;;;;;5032593;28;20402;-75
2021/11/02 01:22:40;;;;;;;21.00;7.60;;;7.20;99.90;;;;;;5034465;28;20395;-77
2021/11/02 01:25:08;;;;;;;21.70;6.43;;;7.20;99.70;;;;;;5033054;28;20395;-77
2021/11/02 01:27:35;;;;;;;19.53;6.33;;;7.10;99.90;;;;;;5019294;28;20415;-77
2021/11/02 01:30:03;;;;;;;14.15;6.35;;;7.20;99.90;;;;;;5036948;28;20401;-74
2021/11/02 01:32:28;;;;;;;16.65;6.35;;;7.20;99.90;;;;;;5054217;28;20411;-75
2021/11/02 01:34:54;;;;;;;10.13;5.68;;;7.10;99.90;;;;;;5037369;28;20395;-74
2021/11/02 01:37:19;;;;;;;16.87;7.07;;;7.20;99.90;;;;;;5031298;28;20491;-75
2021/11/02 01:39:45;;;;;;;11.27;5.73;;;7.10;99.90;;;;;;5031481;28;20798;-75
2021/11/02 01:42:11;;;;;;;22.17;7.87;;;7.10;99.90;;;;;;5031018;28;20434;-75
2021/11/02 01:44:37;;;;;;;18.20;6.70;;;7.10;99.90;;;;;;5030201;28;20455;-75
2021/11/02 01:47:05;;;;;;;13.68;6.13;;;7.10;99.90;;;;;;5031236;28;20760;-74
2021/11/02 01:49:31;;;;;;;17.35;5.90;;;7.00;99.90;;;;;;5031097;28;20391;-76
2021/11/02 01:51:56;;;;;;;17.13;5.83;;;7.00;99.90;;;;;;5029996;28;20386;-76
2021/11/02 01:54:22;;;;;;;12.67;6.00;;;7.00;99.90;;;;;;5031036;28;20433;-75
2021/11/02 01:56:50;;;;;;;13.80;6.70;;;6.90;99.90;;;;;;5031367;28;20407;-78
2021/11/02 01:59:19;;;;;;;12.30;6.00;;;6.90;99.90;;;;;;5028142;28;20478;-75
2021/11/02 02:02:08;;;;;;;12.07;5.90;;;6.80;99.90;;;;;;5029337;28;20418;-76
2021/11/02 02:05:01;;;;;;;14.45;6.20;;;6.90;99.90;;;;;;5032624;28;20432;-76
2021/11/02 02:07:41;;;;;;;14.57;6.53;;;7.00;99.90;;;;;;5033020;28;20432;-76
2021/11/02 02:10:32;;;;;;;16.48;6.15;;;7.00;99.90;;;;;;5032839;28;20403;-76
2021/11/02 02:13:08;;;;;;;12.70;5.60;;;7.00;99.90;;;;;;5034104;28;20382;-76
2021/11/02 02:15:43;;;;;;;17.02;6.10;;;7.10;99.90;;;;;;5030214;28;20387;-75
2021/11/02 02:18:32;;;;;;;15.65;5.97;;;7.00;99.90;;;;;;5030233;28;20383;-76
2021/11/02 02:21:36;;;;;;;20.10;6.50;;;6.90;99.90;;;;;;5031224;28;20399;-76
2021/11/02 02:24:39;;;;;;;11.25;6.47;;;6.90;99.90;;;;;;5032568;28;20386;-76
2021/11/02 02:27:23;;;;;;;23.75;7.40;;;6.90;99.90;;;;;;5043191;28;20425;-77
2021/11/02 02:29:50;;;;;;;13.90;6.32;;;6.80;99.90;;;;;;5044851;28;20397;-76
2021/11/02 02:32:22;;;;;;;18.23;6.20;;;6.80;99.90;;;;;;5054717;28;20472;-76
2021/11/02 02:34:52;;;;;;;14.35;6.03;;;6.80;99.90;;;;;;5058231;28;20392;-77
2021/11/02 02:37:21;;;;;;;14.65;5.68;;;6.80;99.90;;;;;;5056272;28;20894;-77
2021/11/02 02:39:47;;;;;;;11.30;5.43;;;6.80;99.90;;;;;;5054264;28;20869;-76
2021/11/02 02:42:15;;;;;;;17.92;6.55;;;6.80;99.90;;;;;;5053900;28;20762;-76
2021/11/02 02:44:43;;;;;;;11.30;5.80;;;6.80;99.90;;;;;;5053793;28;20385;-76
2021/11/02 02:47:09;;;;;;;13.93;6.17;;;6.80;99.90;;;;;;5054518;28;20950;-76
2021/11/02 02:49:36;;;;;;;14.73;6.17;;;6.80;99.90;;;;;;5053464;28;20407;-75
2021/11/02 02:52:02;;;;;;;17.10;6.20;;;6.80;99.90;;;;;;5055034;28;20475;-77
2021/11/02 02:54:28;;;;;;;13.90;5.80;;;6.80;99.90;;;;;;5054991;28;20389;-77
2021/11/02 02:56:54;;;;;;;14.15;6.10;;;6.80;99.90;;;;;;5040160;28;20435;-76
2021/11/02 02:59:21;;;;;;;10.70;5.53;;;6.80;99.90;;;;;;5021491;28;20898;-77
2021/11/02 03:01:48;;;;;;;15.30;6.25;;;6.80;99.90;;;;;;5016038;28;20425;-77
2021/11/02 03:04:20;;;;;;;12.30;5.90;;;6.80;99.90;;;;;;5016699;28;20388;-73
2021/11/02 03:06:48;;;;;;;14.55;5.00;;;6.80;99.90;;;;;;5019489;28;20438;-76
2021/11/02 03:09:15;;;;;;;10.82;4.93;;;6.80;99.90;;;;;;5020127;28;20385;-76
2021/11/02 03:11:42;;;;;;;11.18;5.50;;;6.80;99.90;;;;;;5022291;28;20451;-76
2021/11/02 03:14:18;;;;;;;10.32;5.80;;;6.80;99.90;;;;;;5042111;28;20383;-77
2021/11/02 03:17:30;;;;;;;11.63;4.60;;;6.80;99.90;;;;;;5037897;28;20414;-77
2021/11/02 03:58:24;;;;;;;11.02;3.83;;;7.00;99.90;;;;;;5032188;28;20509;-76
2021/11/02 04:01:15;;;;;;;7.95;4.47;;;7.00;99.90;;;;;;5031862;28;20725;-77
2021/11/02 04:28:39;;;;;;;4.80;3.83;;;7.30;99.90;;;;;;5031777;28;20482;-75
2021/11/02 05:48:07;;;;;;;9.32;5.38;;;7.00;99.90;;;;;;5034734;28;20762;-77
2021/11/02 06:03:54;;;;;;;6.67;4.30;;;6.90;99.90;;;;;;5030095;28;20400;-77
2021/11/02 06:06:36;;;;;;;7.43;4.90;;;6.90;99.90;;;;;;5029818;28;20423;-75
2021/11/02 06:09:25;;;;;;;10.85;5.45;;;6.90;99.90;;;;;;5027732;28;20444;-76
2021/11/02 06:28:56;;;;;;;11.25;6.10;;;6.80;99.90;;;;;;5037093;28;20451;-77
2021/11/02 06:31:40;;;;;;;12.03;5.80;;;6.90;99.90;;;;;;5040317;28;20419;-76
2021/11/02 06:39:36;;;;;;;10.02;5.40;;;7.00;99.90;;;;;;5036576;28;20393;-77
2021/11/02 06:53:16;;;;;;;9.63;5.00;;;7.30;99.00;;;;;;5037524;28;20394;-76
2021/11/02 06:58:37;;;;;;;8.70;4.60;;;7.40;96.40;;;;;;5042802;28;20429;-77
2021/11/02 07:16:12;;;;;;;10.73;4.43;;;8.10;83.70;;;;;;5025249;28;20392;-75
2021/11/02 07:18:04;;;;;;;8.25;4.00;;;8.20;79.80;;;;;;5026183;28;20478;-78
2021/11/02 07:23:24;;;;;;;5.20;4.03;;;8.30;76.70;;;;;;5018499;28;20399;-77
2021/11/02 07:26:04;;;;;;;11.07;4.13;;;8.40;73.60;;;;;;5024206;28;20403;-78
2021/11/02 08:47:46;;;;;;;13.40;5.00;;;10.00;52.20;;;;;;5034984;28;20456;-77
2021/11/02 08:50:10;;;;;;;9.80;3.90;;;10.10;50.50;;;;;;5047124;28;20536;-77
2021/11/02 08:52:37;;;;;;;6.05;4.28;;;10.20;50.30;;;;;;5034306;28;20892;-75
2021/11/02 08:55:06;;;;;;;11.25;4.00;;;10.40;50.20;;;;;;5034176;28;20763;-78
2021/11/02 08:57:32;;;;;;;4.97;3.50;;;10.40;47.50;;;;;;5029753;28;20426;-76
2021/11/02 08:59:58;;;;;;;7.03;3.33;;;10.50;46.40;;;;;;5031621;28;20757;-77
2021/11/02 09:02:28;;;;;;;9.33;4.30;;;10.50;47.00;;;;;;5034172;28;20454;-76
2021/11/02 09:05:02;;;;;;;11.70;3.40;;;10.60;46.80;;;;;;5014537;28;20391;-76
2021/11/02 09:07:29;;;;;;;33.10;5.45;;;10.60;45.10;;;;;;5014494;28;20869;-76
2021/11/02 09:09:56;;;;;;;15.40;3.95;;;10.80;45.00;;;;;;5029984;28;20412;-76
2021/11/02 09:12:35;;;;;;;6.85;3.70;;;10.80;45.00;;;;;;5036212;28;20537;-74
2021/11/02 09:15:03;;;;;;;58.40;8.05;;;10.80;44.10;;;;;;5029964;28;20402;-75
2021/11/02 09:17:33;;;;;;;7.00;3.80;;;10.90;43.70;;;;;;5033659;28;20432;-76
2021/11/02 09:20:02;;;;;;;9.27;3.92;;;10.90;43.50;;;;;;5034041;28;20755;-75
2021/11/02 09:22:32;;;;;;;13.47;4.00;;;11.10;43.30;;;;;;5034030;28;20435;-76
2021/11/02 09:25:00;;;;;;;12.75;4.50;;;11.10;42.60;;;;;;5034688;28;20481;-76
2021/11/02 09:27:27;;;;;;;10.02;4.40;;;11.10;42.60;;;;;;5033357;28;20410;-75
2021/11/02 09:29:53;;;;;;;9.20;4.00;;;11.00;41.60;;;;;;5034019;28;20398;-77
2021/11/02 09:32:19;;;;;;;8.65;3.60;;;10.90;42.20;;;;;;5034394;28;20392;-76
2021/11/02 09:34:44;;;;;;;9.63;4.30;;;10.80;43.90;;;;;;5036598;28;20499;-76
2021/11/02 09:37:17;;;;;;;9.40;4.20;;;10.70;45.80;;;;;;5037230;28;20407;-76
2021/11/02 09:39:48;;;;;;;10.85;4.90;;;10.60;49.10;;;;;;5034936;28;20428;-77
2021/11/02 09:42:42;;;;;;;18.67;7.07;;;10.50;51.70;;;;;;5032610;28;20439;-76
2021/11/02 09:45:30;;;;;;;10.88;5.10;;;10.50;53.00;;;;;;5038532;28;20410;-77
2021/11/02 09:48:29;;;;;;;10.85;5.00;;;10.50;53.60;;;;;;5037611;28;20501;-76
2021/11/02 09:51:32;;;;;;;10.63;5.20;;;10.40;56.20;;;;;;5020696;28;20392;-75
2021/11/02 09:54:31;;;;;;;9.30;4.60;;;10.40;57.70;;;;;;5034211;28;20512;-77
2021/11/02 09:57:08;;;;;;;14.57;5.00;;;10.40;58.50;;;;;;5043238;28;20415;-78
2021/11/02 09:59:43;;;;;;;9.95;4.97;;;10.40;58.20;;;;;;5024125;28;20384;-77
2021/11/02 10:02:19;;;;;;;12.25;4.70;;;10.40;58.70;;;;;;5032495;28;20394;-78
2021/11/02 10:05:07;;;;;;;12.85;5.10;;;10.40;59.00;;;;;;5040786;28;20872;-76
2021/11/02 10:08:00;;;;;;;7.90;4.70;;;10.50;59.20;;;;;;5013859;28;20923;-76
2021/11/02 10:10:55;;;;;;;8.37;4.70;;;10.70;59.20;;;;;;5029272;28;20444;-76
2021/11/02 10:13:41;;;;;;;11.20;4.03;;;10.70;57.60;;;;;;5026969;28;20437;-76
2021/11/02 10:16:18;;;;;;;10.30;4.55;;;10.90;55.20;;;;;;5034265;28;20927;-75
2021/11/02 10:19:08;;;;;;;7.53;4.40;;;11.20;53.90;;;;;;5049405;28;20395;-77
2021/11/02 10:22:11;;;;;;;7.38;4.70;;;11.20;54.90;;;;;;5036396;28;20461;-75
2021/11/02 10:25:01;;;;;;;9.50;4.53;;;11.10;55.10;;;;;;5036577;28;20635;-75
2021/11/02 10:28:04;;;;;;;7.28;4.47;;;11.20;53.50;;;;;;5035830;28;20387;-76
2021/11/02 10:30:38;;;;;;;8.03;4.20;;;11.20;52.60;;;;;;5033694;28;20383;-75
2021/11/02 10:33:16;;;;;;;12.23;4.60;;;11.20;52.30;;;;;;5034195;28;20414;-76
2021/11/02 10:36:20;;;;;;;11.18;4.55;;;11.30;52.40;;;;;;5033005;28;20766;-76
2021/11/02 10:38:53;;;;;;;15.35;5.10;;;11.40;49.70;;;;;;5034882;28;20467;-75
2021/11/02 10:41:22;;;;;;;8.30;3.95;;;11.40;50.50;;;;;;5034978;28;20880;-77
2021/11/02 10:44:09;;;;;;;8.07;4.90;;;11.40;49.60;;;;;;5035278;28;20391;-76
2021/11/02 10:46:37;;;;;;;10.95;5.13;;;11.50;51.30;;;;;;5035952;28;20379;-77
2021/11/02 10:49:36;;;;;;;9.25;4.80;;;11.60;50.60;;;;;;5035388;28;20529;-75
2021/11/02 10:52:05;;;;;;;12.60;5.35;;;11.60;52.20;;;;;;5035243;28;20390;-75
2021/11/02 10:54:48;;;;;;;8.95;5.00;;;11.70;50.40;;;;;;5036792;28;20426;-77
2021/11/02 10:57:38;;;;;;;11.82;5.93;;;11.90;50.60;;;;;;5035775;28;20422;-76
2021/11/02 11:00:12;;;;;;;12.93;5.25;;;11.90;51.30;;;;;;5015181;28;20385;-75
2021/11/02 11:02:42;;;;;;;9.90;4.70;;;12.00;50.70;;;;;;5014514;28;20455;-75
2021/11/02 11:05:09;;;;;;;7.13;3.97;;;12.20;47.40;;;;;;5014522;28;20940;-77
2021/11/02 11:07:41;;;;;;;9.25;4.50;;;12.40;45.20;;;;;;5015391;28;20471;-77
2021/11/02 11:10:12;;;;;;;7.63;4.90;;;12.50;44.70;;;;;;5014426;28;20465;-77
2021/11/02 11:12:49;;;;;;;9.32;4.57;;;12.30;44.70;;;;;;5022823;28;20414;-78
2021/11/02 11:15:15;;;;;;;8.98;4.10;;;12.30;45.90;;;;;;5034548;28;20419;-77
2021/11/02 11:17:54;;;;;;;10.60;5.03;;;12.30;44.70;;;;;;5036543;28;20473;-77
2021/11/02 11:20:23;;;;;;;8.90;4.70;;;12.30;45.60;;;;;;5039501;28;20486;-77
2021/11/02 11:22:50;;;;;;;7.72;4.57;;;12.10;47.70;;;;;;5037126;28;20403;-77
2021/11/02 11:25:23;;;;;;;7.00;4.60;;;11.90;48.60;;;;;;5032524;28;20970;-76
2021/11/02 11:27:51;;;;;;;9.70;4.70;;;11.60;50.30;;;;;;5025823;28;20394;-76
2021/11/02 11:30:19;;;;;;;7.32;4.50;;;11.40;52.00;;;;;;5032668;28;20391;-76
2021/11/02 11:32:46;;;;;;;7.40;4.53;;;11.30;55.00;;;;;;5032830;28;20403;-76
2021/11/02 11:35:13;;;;;;;8.45;3.80;;;11.20;53.90;;;;;;5033554;28;20417;-77
2021/11/02 11:37:43;;;;;;;7.63;3.78;;;11.30;55.50;;;;;;5020995;28;20436;-76
2021/11/02 11:40:12;;;;;;;6.57;4.03;;;11.40;52.70;;;;;;5013406;28;20511;-75
2021/11/02 11:42:39;;;;;;;10.13;4.30;;;11.40;53.00;;;;;;5012775;28;20464;-75
2021/11/02 11:45:15;;;;;;;12.35;4.57;;;11.40;52.80;;;;;;5016884;28;20631;-76
2021/11/02 11:47:41;;;;;;;8.07;4.30;;;11.40;53.80;;;;;;5030646;28;20724;-76
2021/11/02 11:50:26;;;;;;;5.45;3.50;;;11.40;53.90;;;;;;5020203;28;20460;-77
2021/11/02 11:52:54;;;;;;;6.63;3.60;;;11.30;53.80;;;;;;5031722;28;20469;-76
2021/11/02 11:55:23;;;;;;;7.18;3.50;;;11.10;55.50;;;;;;5023589;28;20456;-75
2021/11/02 11:58:11;;;;;;;10.55;3.50;;;11.00;57.90;;;;;;5037147;28;20399;-74
2021/11/02 12:00:54;;;;;;;9.23;4.13;;;10.80;59.50;;;;;;5034556;28;20395;-75
2021/11/02 12:03:39;;;;;;;8.40;4.30;;;10.70;61.60;;;;;;5030082;28;20474;-75
2021/11/02 12:06:27;;;;;;;7.22;3.90;;;10.70;64.00;;;;;;5037036;28;20387;-76
2021/11/02 12:09:17;;;;;;;9.10;4.47;;;10.70;65.10;;;;;;5033632;28;20380;-77
2021/11/02 12:11:44;;;;;;;7.15;3.65;;;10.80;65.10;;;;;;5028077;28;20402;-75
2021/11/02 12:14:12;;;;;;;9.00;5.05;;;11.00;63.10;;;;;;5032203;28;20387;-75
2021/11/02 12:16:42;;;;;;;6.57;3.20;;;11.40;61.30;;;;;;5031776;28;20407;-76
2021/11/02 12:19:08;;;;;;;6.32;3.20;;;11.70;56.20;;;;;;5032012;28;20401;-76
2021/11/02 12:21:35;;;;;;;10.17;5.30;;;11.70;53.80;;;;;;5034535;28;20478;-76
2021/11/02 12:24:13;;;;;;;9.00;3.38;;;11.70;54.80;;;;;;5033680;28;20391;-77
2021/11/02 12:26:43;;;;;;;5.65;2.70;;;11.70;54.20;;;;;;5029712;28;20505;-77
2021/11/02 12:29:22;;;;;;;4.95;4.03;;;12.00;51.50;;;;;;5031524;28;20394;-77
2021/11/02 12:32:17;;;;;;;8.38;3.50;;;12.00;52.20;;;;;;5033687;28;20410;-76
2021/11/02 12:34:50;;;;;;;11.93;3.65;;;11.90;52.20;;;;;;5030847;28;20399;-76
2021/11/02 12:37:18;;;;;;;5.60;3.40;;;11.90;51.90;;;;;;5034989;28;20470;-78
2021/11/02 12:39:46;;;;;;;7.45;3.42;;;11.90;52.60;;;;;;5034488;28;20498;-78
2021/11/02 12:42:13;;;;;;;7.95;3.85;;;11.80;54.10;;;;;;5032486;28;20478;-77
2021/11/02 12:44:41;;;;;;;4.90;3.88;;;11.80;53.60;;;;;;5034382;28;20398;-78
2021/11/02 12:47:12;;;;;;;5.35;3.53;;;11.90;53.80;;;;;;5033889;28;20398;-79
2021/11/02 12:49:44;;;;;;;7.63;4.50;;;12.10;51.60;;;;;;5034071;28;20792;-77
2021/11/02 12:52:11;;;;;;;8.20;3.90;;;12.20;51.70;;;;;;5036132;28;20752;-79
2021/11/02 12:54:40;;;;;;;7.90;4.20;;;12.40;52.60;;;;;;5043873;28;20529;-75
2021/11/02 12:57:15;;;;;;;7.78;3.97;;;12.70;49.30;;;;;;5048669;28;20434;-76
2021/11/02 12:59:51;;;;;;;6.68;4.32;;;12.80;48.80;;;;;;5039198;28;20715;-76
2021/11/02 13:02:31;;;;;;;5.72;3.72;;;12.60;47.50;;;;;;5032430;28;20859;-77
2021/11/02 13:05:00;;;;;;;5.15;3.47;;;12.60;48.10;;;;;;5035087;28;20383;-77
2021/11/02 13:07:28;;;;;;;8.02;4.28;;;12.40;48.50;;;;;;5035290;28;20419;-78
2021/11/02 13:09:55;;;;;;;7.78;4.07;;;12.30;49.10;;;;;;5043111;28;20528;-77
2021/11/02 13:12:26;;;;;;;5.93;3.20;;;12.30;49.70;;;;;;5049160;28;20402;-76
2021/11/02 13:14:59;;;;;;;4.60;3.10;;;12.10;50.50;;;;;;5047690;28;20383;-77
2021/11/02 13:17:35;;;;;;;6.65;3.70;;;12.10;48.90;;;;;;5039917;28;20568;-77
2021/11/02 13:20:01;;;;;;;8.57;3.55;;;11.90;51.50;;;;;;5037047;28;20399;-79
2021/11/02 13:22:28;;;;;;;11.93;3.60;;;11.90;52.00;;;;;;5041957;28;20410;-79
2021/11/02 13:25:01;;;;;;;6.55;3.45;;;11.90;51.80;;;;;;5042432;28;20403;-78
2021/11/02 13:27:31;;;;;;;6.53;3.97;;;11.80;52.10;;;;;;5034792;28;20380;-78
2021/11/02 13:30:27;;;;;;;10.23;4.00;;;11.70;53.70;;;;;;5032986;28;20435;-76
2021/11/02 13:33:02;;;;;;;6.78;4.00;;;11.70;54.60;;;;;;5033012;28;20469;-77
2021/11/02 13:35:46;;;;;;;10.25;4.00;;;11.70;54.40;;;;;;5032941;28;20406;-76
2021/11/02 13:38:24;;;;;;;10.30;4.33;;;11.70;54.30;;;;;;5035019;28;20470;-77
2021/11/02 13:40:58;;;;;;;8.68;4.47;;;11.70;54.60;;;;;;5038369;28;20413;-77
2021/11/02 13:43:32;;;;;;;8.05;4.15;;;11.70;54.00;;;;;;5033633;28;20395;-77
2021/11/02 13:45:59;;;;;;;7.93;4.25;;;11.60;54.80;;;;;;5036780;28;20426;-78
2021/11/02 13:48:26;;;;;;;10.80;5.82;;;11.60;56.50;;;;;;5041361;28;20422;-78
2021/11/02 13:50:56;;;;;;;9.75;5.25;;;11.50;57.50;;;;;;5041748;28;20498;-77
2021/11/02 13:53:23;;;;;;;7.90;5.20;;;11.50;58.10;;;;;;5034604;28;20467;-76
2021/11/02 13:55:50;;;;;;;11.60;5.43;;;11.50;58.00;;;;;;5032939;28;20391;-77
2021/11/02 13:58:16;;;;;;;10.07;6.13;;;11.50;57.50;;;;;;5035019;28;20481;-77
2021/11/02 14:00:44;;;;;;;9.93;4.90;;;11.50;58.90;;;;;;5034140;28;20387;-76
2021/11/02 14:03:15;;;;;;;9.50;5.78;;;11.50;58.70;;;;;;5030421;28;20454;-76
2021/11/02 14:05:44;;;;;;;8.57;4.65;;;11.50;59.50;;;;;;5033755;28;20888;-77
2021/11/02 14:08:10;;;;;;;8.25;5.03;;;11.60;57.90;;;;;;5033683;28;20390;-76
2021/11/02 14:10:36;;;;;;;6.47;4.70;;;11.60;57.80;;;;;;5031114;28;20394;-76
2021/11/02 14:13:02;;;;;;;17.90;10.23;;;11.60;57.60;;;;;;5032431;28;20869;-77
2021/11/02 14:15:29;;;;;;;10.05;5.75;;;11.60;58.50;;;;;;5034586;28;20383;-79
2021/11/02 14:17:57;;;;;;;9.70;5.20;;;11.70;56.10;;;;;;5034936;28;20422;-78
2021/11/02 14:20:32;;;;;;;9.85;5.00;;;11.80;54.20;;;;;;5041024;28;20534;-78
2021/11/02 14:22:59;;;;;;;8.60;5.10;;;11.90;54.20;;;;;;5041178;28;20395;-78
2021/11/02 14:25:43;;;;;;;9.23;4.28;;;12.00;54.00;;;;;;5037158;28;20383;-77
2021/11/02 14:28:10;;;;;;;6.03;4.65;;;12.00;52.60;;;;;;5037386;28;20545;-78
2021/11/02 14:30:35;;;;;;;7.80;4.00;;;12.00;52.80;;;;;;5033460;28;20408;-77
2021/11/02 14:33:08;;;;;;;7.47;3.80;;;12.10;50.80;;;;;;5038358;28;20725;-77
2021/11/02 14:35:50;;;;;;;5.47;3.67;;;12.00;51.00;;;;;;5038169;28;20860;-77
2021/11/02 14:38:26;;;;;;;8.80;4.53;;;12.00;50.60;;;;;;5037034;28;20811;-78
2021/11/02 14:41:29;;;;;;;5.40;3.85;;;12.00;51.40;;;;;;5038686;28;20741;-78
2021/11/02 14:44:14;;;;;;;7.15;3.60;;;11.80;51.70;;;;;;5035364;28;20807;-78
2021/11/02 14:46:50;;;;;;;3.95;3.35;;;11.70;53.10;;;;;;5033429;28;20387;-78
2021/11/02 14:49:28;;;;;;;6.40;3.90;;;11.60;53.70;;;;;;5033877;28;20455;-77
2021/11/02 14:51:58;;;;;;;9.10;5.10;;;11.70;55.20;;;;;;5043325;28;20872;-78
2021/11/02 14:54:30;;;;;;;6.30;3.97;;;11.50;56.90;;;;;;5047124;28;20395;-77
2021/11/02 14:57:17;;;;;;;6.38;4.07;;;11.50;55.80;;;;;;5039112;28;20413;-77
2021/11/02 15:00:03;;;;;;;6.20;3.90;;;11.40;58.00;;;;;;5037822;28;20468;-78
2021/11/02 15:02:36;;;;;;;8.40;4.10;;;11.30;58.60;;;;;;5037701;28;20387;-78
2021/11/02 15:05:06;;;;;;;6.75;4.40;;;11.30;61.70;;;;;;5036790;28;20400;-78
2021/11/02 15:07:34;;;;;;;8.55;4.03;;;11.20;60.90;;;;;;5036969;28;20401;-77
2021/11/02 15:10:08;;;;;;;5.55;3.90;;;11.20;61.10;;;;;;5034429;28;20514;-75
2021/11/02 15:12:36;;;;;;;3.50;2.80;;;11.30;59.50;;;;;;5032906;28;20840;-77
2021/11/02 15:15:03;;;;;;;7.20;3.30;;;11.20;54.80;;;;;;5034106;28;20391;-77
2021/11/02 15:17:28;;;;;;;7.72;3.40;;;11.20;57.30;;;;;;5032594;28;20446;-77
2021/11/02 15:19:54;;;;;;;5.10;2.70;;;11.00;57.90;;;;;;5026860;28;20446;-77
2021/11/02 15:22:22;;;;;;;7.00;1.92;;;10.80;60.30;;;;;;5031738;28;20402;-77
2021/11/02 15:24:57;;;;;;;3.28;1.95;;;10.70;56.20;;;;;;5013673;28;20415;-77
2021/11/02 15:27:34;;;;;;;3.72;2.20;;;10.60;56.00;;;;;;5032080;28;20411;-77
2021/11/02 15:30:06;;;;;;;3.55;2.00;;;10.60;56.60;;;;;;5037073;28;20381;-77
2021/11/02 15:32:40;;;;;;;2.40;1.90;;;10.50;60.80;;;;;;5032205;28;20411;-78
2021/11/02 15:35:10;;;;;;;3.60;2.30;;;10.50;61.40;;;;;;5023391;28;20979;-78
2021/11/02 15:37:41;;;;;;;5.47;1.80;;;10.50;59.30;;;;;;5036355;28;20544;-78
2021/11/02 15:40:18;;;;;;;2.97;1.92;;;10.50;58.20;;;;;;5036725;28;20418;-78
2021/11/02 15:42:49;;;;;;;2.75;1.90;;;10.40;60.90;;;;;;5034098;28;20455;-77
2021/11/02 15:45:34;;;;;;;2.83;2.15;;;10.30;61.00;;;;;;5034201;28;20444;-77
2021/11/02 15:48:07;;;;;;;4.63;2.07;;;10.20;63.60;;;;;;5034092;28;20481;-77
2021/11/02 15:50:34;;;;;;;4.20;2.92;;;10.30;65.30;;;;;;5033562;28;20876;-78
2021/11/02 15:53:06;;;;;;;4.72;2.17;;;10.30;63.20;;;;;;5036980;28;20470;-78
2021/11/02 15:55:32;;;;;;;4.18;1.88;;;10.40;62.50;;;;;;5035665;28;20821;-77
2021/11/02 15:58:01;;;;;;;3.25;2.50;;;10.50;62.00;;;;;;5035345;28;20415;-77
2021/11/02 16:00:30;;;;;;;3.50;2.40;;;10.40;62.40;;;;;;5035095;28;20402;-78
2021/11/02 16:02:56;;;;;;;3.28;2.60;;;10.40;63.90;;;;;;5028326;28;20465;-78
2021/11/02 16:05:23;;;;;;;5.47;3.60;;;10.40;64.40;;;;;;5034497;28;20391;-79
2021/11/02 16:07:53;;;;;;;7.45;3.35;;;10.30;66.90;;;;;;5034155;28;20466;-77
2021/11/02 16:10:27;;;;;;;5.20;3.30;;;10.20;69.10;;;;;;5034677;28;20469;-78
2021/11/02 16:12:54;;;;;;;4.40;2.70;;;10.10;70.20;;;;;;5033654;28;20482;-77
2021/11/02 16:15:28;;;;;;;4.60;3.53;;;10.10;69.70;;;;;;5032262;28;20398;-77
2021/11/02 16:17:57;;;;;;;4.82;3.40;;;10.00;70.20;;;;;;5034436;28;20410;-77
2021/11/02 16:20:39;;;;;;;5.10;3.22;;;10.00;72.20;;;;;;5047194;28;20403;-78
2021/11/02 16:23:22;;;;;;;6.70;4.70;;;10.00;72.20;;;;;;5030078;28;20481;-78
2021/11/02 16:25:53;;;;;;;5.65;4.60;;;9.90;74.80;;;;;;5032830;28;20399;-78
2021/11/02 16:28:22;;;;;;;6.17;4.00;;;9.90;75.50;;;;;;5038982;28;20939;-77
2021/11/02 16:31:00;;;;;;;6.60;3.70;;;9.90;75.20;;;;;;5027220;28;20411;-76
2021/11/02 16:33:34;;;;;;;7.53;3.40;;;9.90;76.10;;;;;;5023223;28;20459;-77
2021/11/02 16:36:15;;;;;;;4.07;3.40;;;9.90;76.20;;;;;;5029477;28;20403;-76
2021/11/02 16:38:40;;;;;;;5.20;3.20;;;9.90;75.30;;;;;;5034480;28;20453;-77
2021/11/02 16:41:17;;;;;;;4.70;3.42;;;9.90;74.60;;;;;;5032082;28;20489;-78
2021/11/02 16:43:51;;;;;;;4.65;3.50;;;9.90;76.00;;;;;;5031348;28;20421;-78
2021/11/02 16:46:35;;;;;;;3.47;2.42;;;9.80;76.20;;;;;;5030430;28;20398;-77
2021/11/02 16:49:10;;;;;;;3.10;2.80;;;9.90;73.70;;;;;;5013293;28;20376;-79
2021/11/02 16:51:48;;;;;;;4.70;3.30;;;9.90;73.70;;;;;;5012204;28;20388;-77
2021/11/02 16:54:15;;;;;;;5.20;2.80;;;10.00;75.90;;;;;;5027335;28;20863;-77
2021/11/02 16:57:17;;;;;;;5.85;3.83;;;9.80;73.80;;;;;;5029001;28;20414;-76
2021/11/02 16:59:50;;;;;;;3.80;2.67;;;9.70;75.50;;;;;;5028825;28;20398;-76
2021/11/02 17:02:15;;;;;;;3.83;3.08;;;9.50;76.70;;;;;;5032043;28;20399;-79
2021/11/02 17:04:43;;;;;;;5.27;3.67;;;9.30;80.80;;;;;;5033222;28;20485;-78
2021/11/02 17:07:11;;;;;;;6.10;3.65;;;9.20;82.50;;;;;;5038457;28;20457;-78
2021/11/02 17:09:39;;;;;;;6.35;3.13;;;9.00;85.40;;;;;;5037583;28;20391;-78
2021/11/02 17:12:10;;;;;;;6.47;4.03;;;9.00;87.90;;;;;;5032720;28;20411;-78
2021/11/02 17:14:39;;;;;;;5.43;4.05;;;8.90;88.00;;;;;;5033271;28;20395;-77
2021/11/02 17:17:06;;;;;;;7.18;5.05;;;8.70;90.40;;;;;;5032023;28;20483;-78
2021/11/02 17:19:42;;;;;;;7.03;4.38;;;8.70;91.70;;;;;;5033270;28;20399;-78
2021/11/02 17:22:08;;;;;;;4.63;3.80;;;8.60;93.30;;;;;;5030374;28;20609;-77
2021/11/02 17:24:34;;;;;;;6.03;4.30;;;8.50;93.30;;;;;;5046144;28;20395;-77
2021/11/02 17:26:59;;;;;;;8.47;5.37;;;8.50;95.80;;;;;;5030167;28;20407;-77
2021/11/02 17:29:25;;;;;;;8.30;6.17;;;8.40;97.00;;;;;;5027748;28;20824;-76
2021/11/02 17:31:52;;;;;;;6.82;4.53;;;8.30;98.40;;;;;;5029948;28;20745;-78
2021/11/02 17:34:23;;;;;;;7.53;4.55;;;8.30;99.90;;;;;;5031871;28;20810;-77
2021/11/02 17:36:57;;;;;;;9.93;6.07;;;8.30;99.90;;;;;;5028554;28;20414;-77
2021/11/02 17:39:26;;;;;;;10.00;5.55;;;8.20;99.90;;;;;;5031604;28;20383;-77
2021/11/02 17:41:53;;;;;;;8.82;5.63;;;8.30;99.90;;;;;;5031117;28;20757;-77
2021/11/02 17:44:19;;;;;;;9.20;5.10;;;8.20;99.90;;;;;;5031930;28;20414;-75
2021/11/02 17:46:45;;;;;;;12.07;7.25;;;8.20;99.90;;;;;;5041197;28;20401;-76
2021/11/02 17:49:11;;;;;;;10.00;6.93;;;8.10;99.90;;;;;;5036283;28;20404;-77
2021/11/02 17:51:38;;;;;;;10.90;7.68;;;8.10;99.90;;;;;;5032085;28;20502;-78
2021/11/02 17:54:04;;;;;;;9.75;6.05;;;8.00;99.90;;;;;;5031629;28;20395;-77
2021/11/02 17:56:29;;;;;;;10.93;6.80;;;7.90;99.90;;;;;;5036534;28;20768;-76
2021/11/02 17:58:58;;;;;;;9.57;5.93;;;7.80;99.90;;;;;;5032970;28;20402;-77
2021/11/02 18:01:24;;;;;;;9.45;6.70;;;7.90;99.90;;;;;;5037237;28;20414;-78
2021/11/02 18:03:51;;;;;;;9.80;6.20;;;7.90;99.90;;;;;;5039136;28;20412;-77